| time (UTC) | temp F | wind direction | speed MPH | gust MPH | rain 1hr in | rain 24hr in | rain mn in | humidity % | barometer mb |
| 20260507084016 | 49 | 0.0 | 0.0 | 0.08 | 0.28 | 0.11 | 94 | 924.3 | |
| 20260507083016 | 49 | 0.0 | 0.0 | 0.06 | 0.26 | 0.09 | 94 | 924.2 | |
| 20260507082016 | 49 | 0.0 | 0.0 | 0.04 | 0.23 | 0.06 | 93 | 924.1 | |
| 20260507081016 | 49 | 0.0 | 0.0 | 0.03 | 0.22 | 0.05 | 93 | 924.3 | |
| 20260507080016 | 50 | 0.0 | 0.0 | 0.03 | 0.22 | 0.05 | 91 | 924.1 | |
| 20260507075017 | 50 | 0.0 | 0.0 | 0.02 | 0.21 | 0.04 | 90 | 924.3 | |
| 20260507074036 | 50 | 0.0 | 1.0 | 0.01 | 0.20 | 0.03 | 89 | 924.3 | |
| 20260507073016 | 51 | 0.0 | 0.0 | 0.01 | 0.20 | 0.03 | 90 | 924.0 | |
| 20260507072016 | 51 | 0.0 | 0.0 | 0.00 | 0.19 | 0.02 | 89 | 924.2 | |
| 20260507071016 | 51 | 0.0 | 0.0 | 0.00 | 0.19 | 0.02 | 91 | 923.4 | |
| 20260507070037 | 52 | 0.0 | 0.0 | 0.00 | 0.19 | 0.02 | 89 | 923.0 | |
| 20260507065016 | 52 | 0.0 | 0.0 | 0.00 | 0.19 | 0.02 | 89 | 923.2 | |
| 20260507064016 | 52 | 0.0 | 0.0 | 0.00 | 0.19 | 0.02 | 87 | 923.5 | |
| 20260507063016 | 52 | 0.0 | 0.0 | 0.00 | 0.19 | 0.02 | 87 | 923.4 | |
| 20260507062016 | 53 | 0.0 | 3.0 | 0.00 | 0.19 | 0.02 | 88 | 923.6 | |
| 20260507061016 | 53 | 0.0 | 4.0 | 0.00 | 0.19 | 0.02 | 90 | 923.4 | |
| 20260507060015 | 54 | 0.0 | 0.0 | 0.00 | 0.19 | 0.02 | 92 | 923.5 | |
| 20260507055016 | 54 | 0.0 | 0.0 | 0.00 | 0.19 | 0.02 | 92 | 923.6 | |
| 20260507054017 | 55 | 0.0 | 0.0 | 0.00 | 0.19 | 0.02 | 93 | 923.7 | |
| 20260507053036 | 55 | 0.0 | 1.0 | 0.00 | 0.19 | 0.02 | 93 | 923.5 | |
| 20260507052016 | 55 | 0.0 | 0.0 | 0.01 | 0.19 | 0.02 | 93 | 923.7 | |
| 20260507051015 | 55 | 0.0 | 0.0 | 0.01 | 0.19 | 0.02 | 93 | 923.9 | |
| 20260507050015 | 56 | 0.0 | 0.0 | 0.02 | 0.19 | 0.02 | 93 | 923.8 | |
| 20260507045016 | 56 | 0.0 | 0.0 | 0.03 | 0.19 | 0.02 | 93 | 923.4 | |
| 20260507044016 | 57 | 0.0 | 2.0 | 0.05 | 0.19 | 0.02 | 93 | 923.6 | |
| 20260507043017 | 57 | 0.0 | 2.0 | 0.06 | 0.19 | 0.02 | 94 | 923.4 | |
| 20260507042015 | 58 | 0.0 | 0.0 | 0.05 | 0.18 | 0.01 | 94 | 923.5 | |
| 20260507041015 | 58 | 0.0 | 0.0 | 0.05 | 0.18 | 0.01 | 94 | 923.5 | |
| 20260507040037 | 58 | 0.0 | 1.0 | 0.04 | 0.17 | 0.17 | 93 | 923.6 | |
| 20260507035016 | 59 | 0.0 | 0.0 | 0.03 | 0.16 | 0.16 | 93 | 923.4 | |
| 20260507034016 | 59 | 0.0 | 0.0 | 0.01 | 0.14 | 0.14 | 93 | 923.9 | |
| 20260507033015 | 59 | 0.0 | 1.0 | 0.00 | 0.13 | 0.13 | 93 | 923.8 | |
| 20260507032016 | 59 | 0.0 | 1.0 | 0.00 | 0.13 | 0.13 | 93 | 923.5 | |
| 20260507031015 | 59 | 0.0 | 1.0 | 0.00 | 0.13 | 0.13 | 93 | 923.2 | |
| 20260507030015 | 59 | 0.0 | 5.0 | 0.00 | 0.13 | 0.13 | 93 | 923.3 | |
| 20260507025015 | 59 | 0.0 | 0.0 | 0.00 | 0.13 | 0.13 | 93 | 923.3 | |
| 20260507024015 | 59 | 0.0 | 1.0 | 0.00 | 0.13 | 0.13 | 93 | 923.2 | |
| 20260507023035 | 59 | 0.0 | 5.0 | 0.00 | 0.13 | 0.13 | 93 | 923.2 | |
| 20260507022015 | 59 | 0.0 | 5.0 | 0.00 | 0.13 | 0.13 | 93 | 923.1 | |
| 20260507021015 | 59 | 270 | 1.0 | 4.0 | 0.00 | 0.13 | 0.13 | 93 | 922.8 |
| 20260507020015 | 59 | 135 | 1.0 | 6.0 | 0.00 | 0.13 | 0.13 | 93 | 923.2 |
| 20260507015019 | 59 | 248 | 1.0 | 4.0 | 0.00 | 0.13 | 0.13 | 93 | 923.1 |
| 20260507014017 | 58 | 0.0 | 3.0 | 0.00 | 0.13 | 0.13 | 93 | 923.2 | |
| 20260507013038 | 58 | 248 | 1.0 | 7.0 | 0.00 | 0.13 | 0.13 | 93 | 922.9 |
| 20260507012017 | 58 | 248 | 1.0 | 3.0 | 0.00 | 0.13 | 0.13 | 93 | 923.2 |
| 20260507011018 | 58 | 0.0 | 3.0 | 0.00 | 0.13 | 0.13 | 93 | 923.1 | |
| 20260507010017 | 58 | 0.0 | 2.0 | 0.00 | 0.13 | 0.13 | 93 | 923.2 | |
| 20260507005017 | 58 | 248 | 1.0 | 5.0 | 0.00 | 0.13 | 0.13 | 93 | 923.2 |
| 20260507004037 | 58 | 0.0 | 3.0 | 0.00 | 0.13 | 0.13 | 93 | 923.2 | |
| 20260507003015 | 58 | 270 | 1.0 | 6.0 | 0.00 | 0.13 | 0.13 | 93 | 923.5 |
| 20260507002017 | 58 | 158 | 2.0 | 7.0 | 0.00 | 0.13 | 0.13 | 92 | 923.6 |
| 20260507001017 | 58 | 248 | 2.0 | 6.0 | 0.02 | 0.13 | 0.13 | 92 | 923.1 |
| 20260507000017 | 58 | 248 | 1.0 | 6.0 | 0.02 | 0.13 | 0.13 | 92 | 923.2 |
| 20260506235017 | 58 | 0.0 | 3.0 | 0.02 | 0.13 | 0.13 | 92 | 923.2 | |
| 20260506234017 | 59 | 0.0 | 3.0 | 0.02 | 0.13 | 0.13 | 92 | 923.1 | |
| 20260506233017 | 59 | 0.0 | 4.0 | 0.02 | 0.13 | 0.13 | 92 | 923.1 | |
| 20260506232037 | 59 | 248 | 2.0 | 9.0 | 0.02 | 0.13 | 0.13 | 91 | 923.1 |
| 20260506231017 | 59 | 270 | 1.0 | 5.0 | 0.00 | 0.11 | 0.11 | 91 | 923.0 |
| 20260506230017 | 59 | 270 | 2.0 | 9.0 | 0.00 | 0.11 | 0.11 | 91 | 923.0 |
| 20260506225100 | 59 | 270 | 2.0 | 8.0 | 0.01 | 0.11 | 0.11 | 91 | 923.1 |
| 20260506224017 | 59 | 270 | 1.0 | 3.0 | 0.01 | 0.11 | 0.11 | 91 | 923.1 |
| 20260506223037 | 59 | 0.0 | 2.0 | 0.01 | 0.11 | 0.11 | 91 | 923.1 | |
| 20260506222038 | 59 | 293 | 2.0 | 6.0 | 0.01 | 0.11 | 0.11 | 91 | 922.8 |
| 20260506221018 | 59 | 0.0 | 2.0 | 0.02 | 0.11 | 0.11 | 91 | 922.9 | |
| 20260506220017 | 59 | 248 | 1.0 | 4.0 | 0.02 | 0.11 | 0.11 | 91 | 923.1 |
| 20260506215017 | 60 | 0.0 | 2.0 | 0.02 | 0.10 | 0.10 | 91 | 923.1 | |
| 20260506214038 | 60 | 158 | 1.0 | 5.0 | 0.02 | 0.10 | 0.10 | 91 | 923.2 |
| 20260506213017 | 60 | 270 | 2.0 | 6.0 | 0.03 | 0.10 | 0.10 | 90 | 923.4 |
| 20260506212017 | 60 | 248 | 1.0 | 5.0 | 0.03 | 0.10 | 0.10 | 90 | 923.6 |
| 20260506211038 | 60 | 270 | 3.0 | 9.0 | 0.03 | 0.09 | 0.09 | 89 | 923.7 |
| 20260506210017 | 60 | 135 | 1.0 | 3.0 | 0.03 | 0.09 | 0.09 | 90 | 923.7 |
| 20260506205017 | 60 | 270 | 2.0 | 12.0 | 0.02 | 0.08 | 0.08 | 89 | 923.7 |
| 20260506204017 | 60 | 135 | 1.0 | 6.0 | 0.02 | 0.08 | 0.08 | 89 | 923.8 |
| 20260506203017 | 60 | 270 | 1.0 | 4.0 | 0.02 | 0.07 | 0.07 | 89 | 924.0 |
| 20260506202017 | 60 | 0.0 | 3.0 | 0.02 | 0.07 | 0.07 | 89 | 923.7 | |
| 20260506201017 | 60 | 158 | 1.0 | 8.0 | 0.02 | 0.06 | 0.06 | 89 | 924.0 |
| 20260506200018 | 60 | 270 | 1.0 | 8.0 | 0.03 | 0.06 | 0.06 | 88 | 924.2 |
| 20260506195017 | 60 | 270 | 1.0 | 6.0 | 0.04 | 0.06 | 0.06 | 87 | 924.1 |
| 20260506194017 | 60 | 270 | 1.0 | 8.0 | 0.05 | 0.06 | 0.06 | 87 | 924.0 |
| 20260506193017 | 60 | 248 | 1.0 | 4.0 | 0.05 | 0.05 | 0.05 | 87 | 924.2 |
| 20260506192017 | 60 | 270 | 2.0 | 6.0 | 0.05 | 0.05 | 0.05 | 86 | 923.9 |
| 20260506191017 | 61 | 270 | 2.0 | 5.0 | 0.04 | 0.04 | 0.04 | 84 | 924.1 |
| 20260506190018 | 61 | 158 | 2.0 | 5.0 | 0.03 | 0.03 | 0.03 | 83 | 924.5 |
| 20260506185018 | 62 | 270 | 2.0 | 7.0 | 0.02 | 0.02 | 0.02 | 82 | 924.6 |
| 20260506184016 | 63 | 270 | 2.0 | 8.0 | 0.01 | 0.01 | 0.01 | 78 | 924.6 |
| 20260506183017 | 65 | 158 | 1.0 | 5.0 | 0.00 | 0.00 | 0.00 | 75 | 924.7 |
| 20260506182017 | 65 | 248 | 3.0 | 7.0 | 0.00 | 0.00 | 0.00 | 72 | 924.6 |
| 20260506181017 | 66 | 248 | 3.0 | 9.0 | 0.00 | 0.00 | 0.00 | 70 | 924.6 |
| 20260506180017 | 67 | 270 | 3.0 | 7.0 | 0.00 | 0.00 | 0.00 | 66 | 924.9 |
| 20260506175017 | 68 | 270 | 3.0 | 7.0 | 0.00 | 0.00 | 0.00 | 64 | 924.7 |
| 20260506174017 | 69 | 270 | 2.0 | 8.0 | 0.00 | 0.00 | 0.00 | 61 | 925.2 |
| 20260506173038 | 71 | 135 | 3.0 | 7.0 | 0.00 | 0.00 | 0.00 | 58 | 924.8 |
| 20260506172017 | 71 | 248 | 4.0 | 12.0 | 0.00 | 0.00 | 0.00 | 58 | 924.9 |
| 20260506171017 | 71 | 248 | 5.0 | 14.0 | 0.00 | 0.00 | 0.00 | 56 | 925.2 |
| 20260506170018 | 72 | 270 | 4.0 | 10.0 | 0.00 | 0.00 | 0.00 | 56 | 925.0 |
| 20260506165037 | 71 | 293 | 4.0 | 9.0 | 0.00 | 0.00 | 0.00 | 56 | 924.7 |
| 20260506164036 | 72 | 248 | 3.0 | 9.0 | 0.00 | 0.00 | 0.00 | 56 | 925.3 |
| 20260506163016 | 71 | 270 | 4.0 | 11.0 | 0.00 | 0.00 | 0.00 | 58 | 925.1 |
| 20260506162037 | 71 | 270 | 3.0 | 8.0 | 0.00 | 0.00 | 0.00 | 58 | 925.4 |
| 20260506161016 | 71 | 248 | 4.0 | 10.0 | 0.00 | 0.00 | 0.00 | 56 | 925.7 |
| 20260506160037 | 72 | 248 | 4.0 | 8.0 | 0.00 | 0.00 | 0.00 | 56 | 925.4 |
| 20260506155017 | 72 | 158 | 3.0 | 11.0 | 0.00 | 0.00 | 0.00 | 57 | 925.7 |
| 20260506154036 | 72 | 270 | 4.0 | 18.0 | 0.00 | 0.00 | 0.00 | 57 | 925.6 |
| 20260506153017 | 71 | 248 | 3.0 | 7.0 | 0.00 | 0.00 | 0.00 | 58 | 926.0 |
| 20260506152016 | 72 | 248 | 2.0 | 6.0 | 0.00 | 0.00 | 0.00 | 58 | 926.1 |
| 20260506151036 | 71 | 248 | 2.0 | 9.0 | 0.00 | 0.00 | 0.00 | 58 | 926.2 |
| 20260506150038 | 70 | 248 | 2.0 | 6.0 | 0.00 | 0.00 | 0.00 | 61 | 926.0 |
| 20260506145016 | 69 | 248 | 4.0 | 12.0 | 0.00 | 0.00 | 0.00 | 62 | 926.4 |
| 20260506144016 | 69 | 270 | 2.0 | 9.0 | 0.00 | 0.00 | 0.00 | 62 | 926.1 |
| 20260506143016 | 69 | 135 | 3.0 | 11.0 | 0.00 | 0.00 | 0.00 | 61 | 926.4 |
| 20260506142036 | 69 | 270 | 3.0 | 7.0 | 0.00 | 0.00 | 0.00 | 62 | 926.3 |
| 20260506141016 | 69 | 270 | 2.0 | 5.0 | 0.00 | 0.00 | 0.00 | 63 | 926.2 |
| 20260506140016 | 69 | 270 | 4.0 | 11.0 | 0.00 | 0.00 | 0.00 | 62 | 926.2 |
| 20260506135016 | 69 | 135 | 1.0 | 4.0 | 0.00 | 0.00 | 0.00 | 66 | 925.9 |
| 20260506134017 | 67 | 270 | 3.0 | 9.0 | 0.00 | 0.00 | 0.00 | 68 | 926.2 |
| 20260506133016 | 67 | 248 | 3.0 | 8.0 | 0.00 | 0.00 | 0.00 | 69 | 926.3 |
| 20260506132016 | 66 | 270 | 2.0 | 5.0 | 0.00 | 0.00 | 0.00 | 71 | 926.7 |
| 20260506131016 | 65 | 270 | 3.0 | 7.0 | 0.00 | 0.00 | 0.00 | 73 | 926.8 |
| 20260506130016 | 64 | 248 | 2.0 | 6.0 | 0.00 | 0.00 | 0.00 | 73 | 926.6 |
| 20260506125016 | 64 | 270 | 3.0 | 7.0 | 0.00 | 0.00 | 0.00 | 74 | 926.8 |
| 20260506124037 | 64 | 248 | 3.0 | 9.0 | 0.00 | 0.00 | 0.00 | 75 | 926.8 |
| 20260506123036 | 63 | 248 | 3.0 | 7.0 | 0.00 | 0.00 | 0.00 | 75 | 926.6 |
| 20260506122016 | 63 | 135 | 2.0 | 9.0 | 0.00 | 0.00 | 0.00 | 75 | 927.0 |
| 20260506121037 | 63 | 248 | 3.0 | 6.0 | 0.00 | 0.00 | 0.00 | 77 | 926.7 |
| 20260506120016 | 62 | 248 | 3.0 | 9.0 | 0.00 | 0.00 | 0.00 | 78 | 926.8 |
| 20260506115036 | 61 | 270 | 2.0 | 8.0 | 0.00 | 0.00 | 0.00 | 79 | 926.7 |
| 20260506114056 | 61 | 248 | 2.0 | 6.0 | 0.00 | 0.00 | 0.00 | 80 | 926.8 |
| 20260506113016 | 61 | 0.0 | 3.0 | 0.00 | 0.00 | 0.00 | 80 | 926.9 | |
| 20260506112016 | 61 | 248 | 2.0 | 6.0 | 0.00 | 0.00 | 0.00 | 79 | 927.5 |
| 20260506111016 | 61 | 248 | 1.0 | 6.0 | 0.00 | 0.00 | 0.00 | 80 | 927.0 |
| 20260506110016 | 60 | 248 | 1.0 | 5.0 | 0.00 | 0.00 | 0.00 | 80 | 927.0 |
| 20260506105017 | 60 | 270 | 1.0 | 4.0 | 0.00 | 0.00 | 0.00 | 81 | 927.1 |
| 20260506104016 | 59 | 270 | 2.0 | 8.0 | 0.00 | 0.00 | 0.00 | 82 | 926.9 |
| 20260506103016 | 59 | 158 | 1.0 | 6.0 | 0.00 | 0.00 | 0.00 | 82 | 926.8 |
| 20260506102016 | 59 | 0.0 | 2.0 | 0.00 | 0.00 | 0.00 | 82 | 927.0 | |
| 20260506101056 | 59 | 0.0 | 5.0 | 0.00 | 0.00 | 0.00 | 82 | 927.1 | |
| 20260506100016 | 59 | 0.0 | 2.0 | 0.00 | 0.00 | 0.00 | 82 | 926.9 | |
| 20260506095116 | 59 | 0.0 | 3.0 | 0.00 | 0.00 | 0.00 | 81 | 927.0 | |
| 20260506094036 | 59 | 0.0 | 1.0 | 0.00 | 0.00 | 0.00 | 81 | 927.0 | |
| 20260506093016 | 59 | 248 | 2.0 | 9.0 | 0.00 | 0.00 | 0.00 | 81 | 926.8 |
| 20260506092016 | 59 | 270 | 1.0 | 7.0 | 0.00 | 0.00 | 0.00 | 81 | 926.8 |
| 20260506091016 | 59 | 248 | 1.0 | 8.0 | 0.00 | 0.00 | 0.00 | 81 | 926.8 |
| 20260506090017 | 59 | 270 | 1.0 | 5.0 | 0.00 | 0.00 | 0.00 | 80 | 927.1 |
| 20260506085016 | 59 | 248 | 1.0 | 6.0 | 0.00 | 0.00 | 0.00 | 80 | 927.2 |